sensor_id;sensor_type;location;lat;lon;timestamp;temperature;humidity
28715;DHT22;15886;49.170;14.572;2022-12-07T00:01:46;6.10;96.80
28715;DHT22;15886;49.170;14.572;2022-12-07T00:04:16;6.10;96.60
28715;DHT22;15886;49.170;14.572;2022-12-07T00:06:50;6.20;96.50
28715;DHT22;15886;49.170;14.572;2022-12-07T00:09:19;6.20;96.30
28715;DHT22;15886;49.170;14.572;2022-12-07T00:11:50;6.20;96.50
28715;DHT22;15886;49.170;14.572;2022-12-07T00:14:20;6.20;96.40
28715;DHT22;15886;49.170;14.572;2022-12-07T00:16:52;6.20;96.50
28715;DHT22;15886;49.170;14.572;2022-12-07T00:19:20;6.30;96.30
28715;DHT22;15886;49.170;14.572;2022-12-07T00:21:48;6.30;96.30
28715;DHT22;15886;49.170;14.572;2022-12-07T00:24:17;6.30;96.10
28715;DHT22;15886;49.170;14.572;2022-12-07T00:26:45;6.30;96.10
28715;DHT22;15886;49.170;14.572;2022-12-07T00:29:20;6.30;96.00
28715;DHT22;15886;49.170;14.572;2022-12-07T00:31:49;6.30;96.00
28715;DHT22;15886;49.170;14.572;2022-12-07T00:34:20;6.40;95.90
28715;DHT22;15886;49.170;14.572;2022-12-07T00:36:55;6.30;96.00
28715;DHT22;15886;49.170;14.572;2022-12-07T00:39:28;6.30;95.90
28715;DHT22;15886;49.170;14.572;2022-12-07T00:41:56;6.30;95.90
28715;DHT22;15886;49.170;14.572;2022-12-07T00:44:24;6.40;95.80
28715;DHT22;15886;49.170;14.572;2022-12-07T00:46:52;6.40;95.60
28715;DHT22;15886;49.170;14.572;2022-12-07T00:49:23;6.40;95.90
28715;DHT22;15886;49.170;14.572;2022-12-07T00:51:51;6.40;95.90
28715;DHT22;15886;49.170;14.572;2022-12-07T00:54:19;6.50;95.70
28715;DHT22;15886;49.170;14.572;2022-12-07T00:56:47;6.40;95.50
28715;DHT22;15886;49.170;14.572;2022-12-07T00:59:15;6.50;95.50
28715;DHT22;15886;49.170;14.572;2022-12-07T01:01:43;6.40;95.50
28715;DHT22;15886;49.170;14.572;2022-12-07T01:04:11;6.50;95.60
28715;DHT22;15886;49.170;14.572;2022-12-07T01:06:39;6.50;95.40
28715;DHT22;15886;49.170;14.572;2022-12-07T01:09:07;6.50;95.30
28715;DHT22;15886;49.170;14.572;2022-12-07T01:11:35;6.50;95.40
28715;DHT22;15886;49.170;14.572;2022-12-07T01:14:03;6.40;95.20
28715;DHT22;15886;49.170;14.572;2022-12-07T01:16:32;6.40;95.10
28715;DHT22;15886;49.170;14.572;2022-12-07T01:19:01;6.40;95.30
28715;DHT22;15886;49.170;14.572;2022-12-07T01:21:31;6.40;95.20
28715;DHT22;15886;49.170;14.572;2022-12-07T01:24:07;6.40;95.20
28715;DHT22;15886;49.170;14.572;2022-12-07T01:26:35;6.30;95.30
28715;DHT22;15886;49.170;14.572;2022-12-07T01:29:03;6.30;95.10
28715;DHT22;15886;49.170;14.572;2022-12-07T01:31:31;6.30;95.30
28715;DHT22;15886;49.170;14.572;2022-12-07T01:34:00;6.20;95.20
28715;DHT22;15886;49.170;14.572;2022-12-07T01:36:31;6.20;95.50
28715;DHT22;15886;49.170;14.572;2022-12-07T01:39:02;6.10;95.60
28715;DHT22;15886;49.170;14.572;2022-12-07T01:41:34;6.00;95.50
28715;DHT22;15886;49.170;14.572;2022-12-07T01:46:37;5.90;95.80
28715;DHT22;15886;49.170;14.572;2022-12-07T01:49:10;5.90;95.80
28715;DHT22;15886;49.170;14.572;2022-12-07T01:51:40;6.10;95.60
28715;DHT22;15886;49.170;14.572;2022-12-07T01:54:10;6.10;95.40
28715;DHT22;15886;49.170;14.572;2022-12-07T01:56:41;6.10;95.40
28715;DHT22;15886;49.170;14.572;2022-12-07T01:59:11;6.10;95.30
28715;DHT22;15886;49.170;14.572;2022-12-07T02:01:39;6.20;95.20
28715;DHT22;15886;49.170;14.572;2022-12-07T02:04:07;6.10;95.30
28715;DHT22;15886;49.170;14.572;2022-12-07T02:06:37;6.10;95.20
28715;DHT22;15886;49.170;14.572;2022-12-07T02:09:06;6.10;95.20
28715;DHT22;15886;49.170;14.572;2022-12-07T02:11:36;6.10;95.40
28715;DHT22;15886;49.170;14.572;2022-12-07T02:14:05;6.00;95.40
28715;DHT22;15886;49.170;14.572;2022-12-07T02:28:07;6.20;95.30
28715;DHT22;15886;49.170;14.572;2022-12-07T02:30:42;6.10;95.00
28715;DHT22;15886;49.170;14.572;2022-12-07T02:33:17;6.00;95.20
28715;DHT22;15886;49.170;14.572;2022-12-07T02:35:55;6.00;95.20
28715;DHT22;15886;49.170;14.572;2022-12-07T02:38:26;6.10;94.90
28715;DHT22;15886;49.170;14.572;2022-12-07T02:41:12;6.10;95.00
28715;DHT22;15886;49.170;14.572;2022-12-07T02:43:47;6.10;95.00
28715;DHT22;15886;49.170;14.572;2022-12-07T02:46:21;6.10;94.90
28715;DHT22;15886;49.170;14.572;2022-12-07T02:48:51;6.00;94.70
28715;DHT22;15886;49.170;14.572;2022-12-07T02:51:21;6.00;94.50
28715;DHT22;15886;49.170;14.572;2022-12-07T02:53:49;6.20;94.50
28715;DHT22;15886;49.170;14.572;2022-12-07T02:56:39;6.00;94.50
28715;DHT22;15886;49.170;14.572;2022-12-07T03:07:05;6.00;94.50
28715;DHT22;15886;49.170;14.572;2022-12-07T03:09:52;6.00;94.50
28715;DHT22;15886;49.170;14.572;2022-12-07T03:12:32;6.00;94.70
28715;DHT22;15886;49.170;14.572;2022-12-07T03:15:27;6.00;94.90
28715;DHT22;15886;49.170;14.572;2022-12-07T03:17:58;6.00;94.90
28715;DHT22;15886;49.170;14.572;2022-12-07T03:20:29;6.00;95.20
28715;DHT22;15886;49.170;14.572;2022-12-07T03:22:59;6.00;95.10
28715;DHT22;15886;49.170;14.572;2022-12-07T03:25:28;6.00;94.90
28715;DHT22;15886;49.170;14.572;2022-12-07T03:27:59;6.10;94.80
28715;DHT22;15886;49.170;14.572;2022-12-07T03:30:51;6.00;95.00
28715;DHT22;15886;49.170;14.572;2022-12-07T03:33:31;5.90;94.90
28715;DHT22;15886;49.170;14.572;2022-12-07T03:36:50;5.90;94.90
28715;DHT22;15886;49.170;14.572;2022-12-07T03:39:04;6.00;94.90
28715;DHT22;15886;49.170;14.572;2022-12-07T03:41:35;6.00;94.50
28715;DHT22;15886;49.170;14.572;2022-12-07T03:44:07;6.00;94.40
28715;DHT22;15886;49.170;14.572;2022-12-07T03:49:25;5.90;94.60
28715;DHT22;15886;49.170;14.572;2022-12-07T03:51:55;6.00;94.70
28715;DHT22;15886;49.170;14.572;2022-12-07T03:54:49;6.00;94.60
28715;DHT22;15886;49.170;14.572;2022-12-07T03:57:20;6.20;94.70
28715;DHT22;15886;49.170;14.572;2022-12-07T03:59:50;6.30;94.20
28715;DHT22;15886;49.170;14.572;2022-12-07T04:02:18;6.30;94.20
28715;DHT22;15886;49.170;14.572;2022-12-07T04:04:47;6.40;93.50
28715;DHT22;15886;49.170;14.572;2022-12-07T04:07:15;6.50;93.60
28715;DHT22;15886;49.170;14.572;2022-12-07T04:09:44;6.50;93.80
28715;DHT22;15886;49.170;14.572;2022-12-07T04:12:12;6.50;93.70
28715;DHT22;15886;49.170;14.572;2022-12-07T04:14:39;6.60;93.70
28715;DHT22;15886;49.170;14.572;2022-12-07T04:17:08;6.60;93.60
28715;DHT22;15886;49.170;14.572;2022-12-07T04:19:36;6.50;93.60
28715;DHT22;15886;49.170;14.572;2022-12-07T04:22:05;6.50;93.70
28715;DHT22;15886;49.170;14.572;2022-12-07T04:24:34;6.40;93.90
28715;DHT22;15886;49.170;14.572;2022-12-07T04:27:02;6.50;93.80
28715;DHT22;15886;49.170;14.572;2022-12-07T04:29:30;6.50;93.80
28715;DHT22;15886;49.170;14.572;2022-12-07T04:31:57;6.40;93.80
28715;DHT22;15886;49.170;14.572;2022-12-07T04:34:25;6.50;93.90
28715;DHT22;15886;49.170;14.572;2022-12-07T04:36:56;6.60;93.90
28715;DHT22;15886;49.170;14.572;2022-12-07T04:39:29;6.60;93.80
28715;DHT22;15886;49.170;14.572;2022-12-07T04:41:58;6.70;93.40
28715;DHT22;15886;49.170;14.572;2022-12-07T04:44:27;6.80;93.50
28715;DHT22;15886;49.170;14.572;2022-12-07T04:46:56;6.80;93.30
28715;DHT22;15886;49.170;14.572;2022-12-07T04:49:25;6.80;93.50
28715;DHT22;15886;49.170;14.572;2022-12-07T04:51:53;6.70;93.50
28715;DHT22;15886;49.170;14.572;2022-12-07T04:54:21;6.70;93.60
28715;DHT22;15886;49.170;14.572;2022-12-07T04:56:49;6.60;93.40
28715;DHT22;15886;49.170;14.572;2022-12-07T04:59:17;6.70;93.20
28715;DHT22;15886;49.170;14.572;2022-12-07T05:01:45;6.70;93.20
28715;DHT22;15886;49.170;14.572;2022-12-07T05:04:21;6.70;93.40
28715;DHT22;15886;49.170;14.572;2022-12-07T05:06:51;6.70;93.50
28715;DHT22;15886;49.170;14.572;2022-12-07T05:09:23;6.60;93.50
28715;DHT22;15886;49.170;14.572;2022-12-07T05:11:52;6.70;93.40
28715;DHT22;15886;49.170;14.572;2022-12-07T05:14:20;6.80;93.20
28715;DHT22;15886;49.170;14.572;2022-12-07T05:16:51;6.70;93.30
28715;DHT22;15886;49.170;14.572;2022-12-07T05:35:15;6.60;93.60
28715;DHT22;15886;49.170;14.572;2022-12-07T05:37:43;6.60;93.50
28715;DHT22;15886;49.170;14.572;2022-12-07T05:40:13;6.50;93.60
28715;DHT22;15886;49.170;14.572;2022-12-07T05:42:41;6.50;93.60
28715;DHT22;15886;49.170;14.572;2022-12-07T05:54:47;6.40;93.90
28715;DHT22;15886;49.170;14.572;2022-12-07T05:57:17;6.40;94.00
28715;DHT22;15886;49.170;14.572;2022-12-07T06:00:04;6.40;93.80
28715;DHT22;15886;49.170;14.572;2022-12-07T06:02:38;6.40;93.90
28715;DHT22;15886;49.170;14.572;2022-12-07T06:05:07;6.50;93.70
28715;DHT22;15886;49.170;14.572;2022-12-07T06:07:35;6.50;93.60
28715;DHT22;15886;49.170;14.572;2022-12-07T06:10:03;6.60;93.60
28715;DHT22;15886;49.170;14.572;2022-12-07T06:12:31;6.60;93.40
28715;DHT22;15886;49.170;14.572;2022-12-07T06:15:33;6.50;93.40
28715;DHT22;15886;49.170;14.572;2022-12-07T06:18:45;6.50;93.10
28715;DHT22;15886;49.170;14.572;2022-12-07T06:21:16;6.60;93.00
28715;DHT22;15886;49.170;14.572;2022-12-07T06:24:37;6.60;93.00
28715;DHT22;15886;49.170;14.572;2022-12-07T06:28:14;6.50;92.90
28715;DHT22;15886;49.170;14.572;2022-12-07T06:40:29;6.20;92.60
28715;DHT22;15886;49.170;14.572;2022-12-07T06:48:46;6.00;92.50
28715;DHT22;15886;49.170;14.572;2022-12-07T06:51:17;6.00;92.50
28715;DHT22;15886;49.170;14.572;2022-12-07T06:53:59;6.10;92.50
28715;DHT22;15886;49.170;14.572;2022-12-07T06:56:28;6.00;92.20
28715;DHT22;15886;49.170;14.572;2022-12-07T06:59:05;6.00;92.60
28715;DHT22;15886;49.170;14.572;2022-12-07T07:01:35;6.00;92.60
28715;DHT22;15886;49.170;14.572;2022-12-07T07:04:03;6.00;92.40
28715;DHT22;15886;49.170;14.572;2022-12-07T07:06:32;6.20;92.50
28715;DHT22;15886;49.170;14.572;2022-12-07T07:09:03;6.20;92.30
28715;DHT22;15886;49.170;14.572;2022-12-07T07:11:31;6.30;92.20
28715;DHT22;15886;49.170;14.572;2022-12-07T07:14:00;6.30;92.40
28715;DHT22;15886;49.170;14.572;2022-12-07T07:16:30;6.30;92.40
28715;DHT22;15886;49.170;14.572;2022-12-07T07:19:02;6.30;92.30
28715;DHT22;15886;49.170;14.572;2022-12-07T07:21:30;6.40;92.50
28715;DHT22;15886;49.170;14.572;2022-12-07T07:23:58;6.30;92.30
28715;DHT22;15886;49.170;14.572;2022-12-07T07:26:28;6.30;92.30
28715;DHT22;15886;49.170;14.572;2022-12-07T07:28:56;6.20;92.30
28715;DHT22;15886;49.170;14.572;2022-12-07T07:31:29;6.20;92.40
28715;DHT22;15886;49.170;14.572;2022-12-07T07:33:57;6.20;92.10
28715;DHT22;15886;49.170;14.572;2022-12-07T07:36:39;6.10;92.30
28715;DHT22;15886;49.170;14.572;2022-12-07T07:39:11;6.10;92.20
28715;DHT22;15886;49.170;14.572;2022-12-07T07:41:42;6.10;92.20
28715;DHT22;15886;49.170;14.572;2022-12-07T07:44:13;6.20;91.90
28715;DHT22;15886;49.170;14.572;2022-12-07T07:46:43;6.10;92.20
28715;DHT22;15886;49.170;14.572;2022-12-07T07:49:19;6.20;92.10
28715;DHT22;15886;49.170;14.572;2022-12-07T07:52:05;6.40;91.70
28715;DHT22;15886;49.170;14.572;2022-12-07T07:54:41;6.30;91.60
28715;DHT22;15886;49.170;14.572;2022-12-07T07:57:31;6.40;91.60
28715;DHT22;15886;49.170;14.572;2022-12-07T08:00:28;6.30;91.50
28715;DHT22;15886;49.170;14.572;2022-12-07T08:06:12;6.60;91.20
28715;DHT22;15886;49.170;14.572;2022-12-07T08:08:57;7.00;91.30
28715;DHT22;15886;49.170;14.572;2022-12-07T08:11:42;7.40;90.00
28715;DHT22;15886;49.170;14.572;2022-12-07T08:14:18;7.90;88.60
28715;DHT22;15886;49.170;14.572;2022-12-07T08:16:57;8.40;86.30
28715;DHT22;15886;49.170;14.572;2022-12-07T08:19:28;8.60;84.90
28715;DHT22;15886;49.170;14.572;2022-12-07T08:21:56;8.80;83.60
28715;DHT22;15886;49.170;14.572;2022-12-07T08:24:24;8.90;82.90
28715;DHT22;15886;49.170;14.572;2022-12-07T08:27:16;9.00;82.10
28715;DHT22;15886;49.170;14.572;2022-12-07T08:29:44;9.00;81.10
28715;DHT22;15886;49.170;14.572;2022-12-07T08:32:13;9.00;81.40
28715;DHT22;15886;49.170;14.572;2022-12-07T08:34:41;9.10;81.30
28715;DHT22;15886;49.170;14.572;2022-12-07T08:37:09;9.50;81.30
28715;DHT22;15886;49.170;14.572;2022-12-07T08:39:37;9.70;79.60
28715;DHT22;15886;49.170;14.572;2022-12-07T08:42:05;10.00;77.80
28715;DHT22;15886;49.170;14.572;2022-12-07T08:44:33;10.10;77.60
28715;DHT22;15886;49.170;14.572;2022-12-07T08:47:04;10.10;78.10
28715;DHT22;15886;49.170;14.572;2022-12-07T08:49:40;10.00;77.00
28715;DHT22;15886;49.170;14.572;2022-12-07T08:52:09;9.80;76.20
28715;DHT22;15886;49.170;14.572;2022-12-07T08:54:39;9.50;77.30
28715;DHT22;15886;49.170;14.572;2022-12-07T08:57:08;9.30;78.40
28715;DHT22;15886;49.170;14.572;2022-12-07T08:59:38;9.00;78.90
28715;DHT22;15886;49.170;14.572;2022-12-07T09:02:06;8.80;79.10
28715;DHT22;15886;49.170;14.572;2022-12-07T09:04:34;8.50;79.50
28715;DHT22;15886;49.170;14.572;2022-12-07T09:07:02;8.40;80.10
28715;DHT22;15886;49.170;14.572;2022-12-07T09:09:30;8.30;80.30
28715;DHT22;15886;49.170;14.572;2022-12-07T09:11:58;8.20;80.90
28715;DHT22;15886;49.170;14.572;2022-12-07T09:14:26;8.00;81.80
28715;DHT22;15886;49.170;14.572;2022-12-07T09:16:54;7.90;82.90
28715;DHT22;15886;49.170;14.572;2022-12-07T09:19:22;7.80;83.50
28715;DHT22;15886;49.170;14.572;2022-12-07T09:21:50;7.80;84.30
28715;DHT22;15886;49.170;14.572;2022-12-07T09:24:18;7.70;84.80
28715;DHT22;15886;49.170;14.572;2022-12-07T09:26:46;7.50;85.20
28715;DHT22;15886;49.170;14.572;2022-12-07T09:29:14;7.40;84.90
28715;DHT22;15886;49.170;14.572;2022-12-07T09:31:42;7.40;84.00
28715;DHT22;15886;49.170;14.572;2022-12-07T09:34:10;7.60;86.70
28715;DHT22;15886;49.170;14.572;2022-12-07T09:36:38;7.90;87.10
28715;DHT22;15886;49.170;14.572;2022-12-07T09:39:07;8.10;87.30
28715;DHT22;15886;49.170;14.572;2022-12-07T09:41:41;8.30;86.80
28715;DHT22;15886;49.170;14.572;2022-12-07T09:44:18;8.60;86.70
28715;DHT22;15886;49.170;14.572;2022-12-07T09:46:48;8.80;83.90
28715;DHT22;15886;49.170;14.572;2022-12-07T09:49:21;9.10;82.00
28715;DHT22;15886;49.170;14.572;2022-12-07T09:54:36;9.30;81.30
28715;DHT22;15886;49.170;14.572;2022-12-07T09:57:05;9.40;80.60
28715;DHT22;15886;49.170;14.572;2022-12-07T09:59:33;9.40;81.20
28715;DHT22;15886;49.170;14.572;2022-12-07T10:04:53;9.40;80.30
28715;DHT22;15886;49.170;14.572;2022-12-07T10:07:21;9.50;80.90
28715;DHT22;15886;49.170;14.572;2022-12-07T10:09:49;9.70;82.70
28715;DHT22;15886;49.170;14.572;2022-12-07T10:12:17;9.90;81.60
28715;DHT22;15886;49.170;14.572;2022-12-07T10:15:04;9.90;80.30
28715;DHT22;15886;49.170;14.572;2022-12-07T10:17:37;10.00;77.80
28715;DHT22;15886;49.170;14.572;2022-12-07T10:20:23;10.00;80.10
28715;DHT22;15886;49.170;14.572;2022-12-07T10:22:59;10.10;78.30
28715;DHT22;15886;49.170;14.572;2022-12-07T10:25:35;9.90;74.60
28715;DHT22;15886;49.170;14.572;2022-12-07T10:28:27;9.80;78.80
28715;DHT22;15886;49.170;14.572;2022-12-07T10:31:16;9.70;78.70
28715;DHT22;15886;49.170;14.572;2022-12-07T10:33:51;9.60;79.90
28715;DHT22;15886;49.170;14.572;2022-12-07T10:39:18;9.60;79.80
28715;DHT22;15886;49.170;14.572;2022-12-07T10:44:27;9.50;78.70
28715;DHT22;15886;49.170;14.572;2022-12-07T10:52:44;9.40;77.70
28715;DHT22;15886;49.170;14.572;2022-12-07T10:55:25;9.30;77.10
28715;DHT22;15886;49.170;14.572;2022-12-07T11:07:09;9.30;77.20
28715;DHT22;15886;49.170;14.572;2022-12-07T11:15:40;8.80;77.50
28715;DHT22;15886;49.170;14.572;2022-12-07T11:18:21;8.80;77.70
28715;DHT22;15886;49.170;14.572;2022-12-07T11:21:09;8.70;78.20
28715;DHT22;15886;49.170;14.572;2022-12-07T11:37:45;8.50;79.50
28715;DHT22;15886;49.170;14.572;2022-12-07T11:40:20;8.30;79.40
28715;DHT22;15886;49.170;14.572;2022-12-07T11:45:37;8.50;80.70
28715;DHT22;15886;49.170;14.572;2022-12-07T11:51:09;8.60;80.10
28715;DHT22;15886;49.170;14.572;2022-12-07T11:53:46;8.60;79.90
28715;DHT22;15886;49.170;14.572;2022-12-07T11:56:21;8.40;78.70
28715;DHT22;15886;49.170;14.572;2022-12-07T12:02:31;8.30;80.30
28715;DHT22;15886;49.170;14.572;2022-12-07T12:05:21;8.20;80.80
28715;DHT22;15886;49.170;14.572;2022-12-07T12:08:18;8.10;81.30
28715;DHT22;15886;49.170;14.572;2022-12-07T12:11:30;8.00;81.20
28715;DHT22;15886;49.170;14.572;2022-12-07T12:22:46;8.00;81.50
28715;DHT22;15886;49.170;14.572;2022-12-07T12:25:27;7.90;81.90
28715;DHT22;15886;49.170;14.572;2022-12-07T12:27:59;7.90;81.50
28715;DHT22;15886;49.170;14.572;2022-12-07T12:30:34;7.90;82.10
28715;DHT22;15886;49.170;14.572;2022-12-07T12:33:19;7.80;82.40
28715;DHT22;15886;49.170;14.572;2022-12-07T12:36:16;7.90;83.40
28715;DHT22;15886;49.170;14.572;2022-12-07T12:42:18;8.00;83.00
28715;DHT22;15886;49.170;14.572;2022-12-07T12:48:07;8.20;82.10
28715;DHT22;15886;49.170;14.572;2022-12-07T12:54:22;8.00;82.80
28715;DHT22;15886;49.170;14.572;2022-12-07T12:57:12;8.00;83.20
28715;DHT22;15886;49.170;14.572;2022-12-07T13:02:25;7.90;83.70
28715;DHT22;15886;49.170;14.572;2022-12-07T13:13:01;7.80;85.10
28715;DHT22;15886;49.170;14.572;2022-12-07T13:15:43;7.80;84.60
28715;DHT22;15886;49.170;14.572;2022-12-07T13:26:20;8.00;84.30
28715;DHT22;15886;49.170;14.572;2022-12-07T13:29:12;7.90;84.20
28715;DHT22;15886;49.170;14.572;2022-12-07T13:31:56;7.90;84.40
28715;DHT22;15886;49.170;14.572;2022-12-07T13:34:33;7.90;84.80
28715;DHT22;15886;49.170;14.572;2022-12-07T13:37:30;7.90;85.00
28715;DHT22;15886;49.170;14.572;2022-12-07T13:40:23;7.80;84.80
28715;DHT22;15886;49.170;14.572;2022-12-07T13:43:17;7.80;85.80
28715;DHT22;15886;49.170;14.572;2022-12-07T13:45:58;7.80;85.70
28715;DHT22;15886;49.170;14.572;2022-12-07T13:48:48;7.80;84.80
28715;DHT22;15886;49.170;14.572;2022-12-07T13:51:22;7.80;85.10
28715;DHT22;15886;49.170;14.572;2022-12-07T13:54:10;7.80;84.20
28715;DHT22;15886;49.170;14.572;2022-12-07T13:57:14;7.70;84.30
28715;DHT22;15886;49.170;14.572;2022-12-07T13:59:42;7.70;85.30
28715;DHT22;15886;49.170;14.572;2022-12-07T14:02:22;7.70;85.30
28715;DHT22;15886;49.170;14.572;2022-12-07T14:07:35;7.80;85.40
28715;DHT22;15886;49.170;14.572;2022-12-07T14:10:29;7.80;84.80
28715;DHT22;15886;49.170;14.572;2022-12-07T14:13:00;7.70;84.80
28715;DHT22;15886;49.170;14.572;2022-12-07T14:15:30;7.80;84.60
28715;DHT22;15886;49.170;14.572;2022-12-07T14:18:01;7.70;84.80
28715;DHT22;15886;49.170;14.572;2022-12-07T14:20:37;7.70;84.90
28715;DHT22;15886;49.170;14.572;2022-12-07T14:23:25;7.80;86.00
28715;DHT22;15886;49.170;14.572;2022-12-07T14:25:53;7.80;85.40
28715;DHT22;15886;49.170;14.572;2022-12-07T14:28:33;7.90;84.40
28715;DHT22;15886;49.170;14.572;2022-12-07T14:31:03;7.90;84.10
28715;DHT22;15886;49.170;14.572;2022-12-07T14:33:31;8.00;84.00
28715;DHT22;15886;49.170;14.572;2022-12-07T14:36:01;8.00;84.90
28715;DHT22;15886;49.170;14.572;2022-12-07T14:38:29;7.90;84.40
28715;DHT22;15886;49.170;14.572;2022-12-07T14:40:59;7.90;84.30
28715;DHT22;15886;49.170;14.572;2022-12-07T14:43:47;7.80;84.80
28715;DHT22;15886;49.170;14.572;2022-12-07T14:46:27;7.90;84.80
28715;DHT22;15886;49.170;14.572;2022-12-07T14:48:56;8.00;84.90
28715;DHT22;15886;49.170;14.572;2022-12-07T14:51:46;8.00;84.40
28715;DHT22;15886;49.170;14.572;2022-12-07T14:54:38;7.80;84.30
28715;DHT22;15886;49.170;14.572;2022-12-07T14:57:10;7.70;85.00
28715;DHT22;15886;49.170;14.572;2022-12-07T14:59:42;7.60;85.80
28715;DHT22;15886;49.170;14.572;2022-12-07T15:02:17;7.50;86.00
28715;DHT22;15886;49.170;14.572;2022-12-07T15:05:16;7.40;86.20
28715;DHT22;15886;49.170;14.572;2022-12-07T15:07:53;7.40;86.70
28715;DHT22;15886;49.170;14.572;2022-12-07T15:25:36;7.40;86.80
28715;DHT22;15886;49.170;14.572;2022-12-07T15:29:13;7.30;87.20
28715;DHT22;15886;49.170;14.572;2022-12-07T15:33:08;7.50;86.70
28715;DHT22;15886;49.170;14.572;2022-12-07T15:39:39;7.60;86.30
28715;DHT22;15886;49.170;14.572;2022-12-07T15:51:47;7.60;86.10
28715;DHT22;15886;49.170;14.572;2022-12-07T15:54:43;7.50;85.20
28715;DHT22;15886;49.170;14.572;2022-12-07T15:57:50;7.50;85.50
28715;DHT22;15886;49.170;14.572;2022-12-07T16:05:55;7.50;85.90
28715;DHT22;15886;49.170;14.572;2022-12-07T16:08:56;7.50;86.90
28715;DHT22;15886;49.170;14.572;2022-12-07T16:46:51;7.40;85.50
28715;DHT22;15886;49.170;14.572;2022-12-07T16:49:20;7.40;86.40
28715;DHT22;15886;49.170;14.572;2022-12-07T16:51:52;7.40;86.90
28715;DHT22;15886;49.170;14.572;2022-12-07T16:54:49;7.40;86.80
28715;DHT22;15886;49.170;14.572;2022-12-07T16:57:18;7.50;87.00
28715;DHT22;15886;49.170;14.572;2022-12-07T16:59:49;7.50;87.40
28715;DHT22;15886;49.170;14.572;2022-12-07T17:02:17;7.50;87.40
28715;DHT22;15886;49.170;14.572;2022-12-07T17:04:46;7.60;85.60
28715;DHT22;15886;49.170;14.572;2022-12-07T17:07:15;7.50;85.60
28715;DHT22;15886;49.170;14.572;2022-12-07T17:09:43;7.50;85.90
28715;DHT22;15886;49.170;14.572;2022-12-07T17:12:11;7.50;86.50
28715;DHT22;15886;49.170;14.572;2022-12-07T17:14:39;7.50;86.40
28715;DHT22;15886;49.170;14.572;2022-12-07T17:17:26;7.60;85.50
28715;DHT22;15886;49.170;14.572;2022-12-07T17:19:55;7.50;84.60
28715;DHT22;15886;49.170;14.572;2022-12-07T17:22:23;7.40;85.20
28715;DHT22;15886;49.170;14.572;2022-12-07T17:24:51;7.40;85.50
28715;DHT22;15886;49.170;14.572;2022-12-07T17:27:19;7.30;85.50
28715;DHT22;15886;49.170;14.572;2022-12-07T17:29:47;7.30;86.10
28715;DHT22;15886;49.170;14.572;2022-12-07T17:32:16;7.20;87.50
28715;DHT22;15886;49.170;14.572;2022-12-07T17:34:44;7.20;87.20
28715;DHT22;15886;49.170;14.572;2022-12-07T17:37:12;7.20;87.70
28715;DHT22;15886;49.170;14.572;2022-12-07T17:39:40;7.20;87.90
28715;DHT22;15886;49.170;14.572;2022-12-07T17:42:09;7.20;87.60
28715;DHT22;15886;49.170;14.572;2022-12-07T17:44:55;7.30;87.70
28715;DHT22;15886;49.170;14.572;2022-12-07T17:47:27;7.20;88.00
28715;DHT22;15886;49.170;14.572;2022-12-07T17:49:57;7.10;87.70
28715;DHT22;15886;49.170;14.572;2022-12-07T17:52:30;7.00;87.50
28715;DHT22;15886;49.170;14.572;2022-12-07T17:55:21;7.00;87.70
28715;DHT22;15886;49.170;14.572;2022-12-07T17:58:04;6.90;87.90
28715;DHT22;15886;49.170;14.572;2022-12-07T18:00:33;7.00;88.20
28715;DHT22;15886;49.170;14.572;2022-12-07T18:03:07;7.00;87.90
28715;DHT22;15886;49.170;14.572;2022-12-07T18:05:53;6.90;88.00
28715;DHT22;15886;49.170;14.572;2022-12-07T18:08:21;6.90;87.60
28715;DHT22;15886;49.170;14.572;2022-12-07T18:10:49;6.80;88.10
28715;DHT22;15886;49.170;14.572;2022-12-07T18:13:17;6.80;88.30
28715;DHT22;15886;49.170;14.572;2022-12-07T18:16:12;6.80;88.70
28715;DHT22;15886;49.170;14.572;2022-12-07T18:18:40;6.80;88.80
28715;DHT22;15886;49.170;14.572;2022-12-07T18:21:13;6.90;88.60
28715;DHT22;15886;49.170;14.572;2022-12-07T18:23:48;6.90;89.00
28715;DHT22;15886;49.170;14.572;2022-12-07T18:26:32;6.90;89.00
28715;DHT22;15886;49.170;14.572;2022-12-07T18:29:04;6.90;88.30
28715;DHT22;15886;49.170;14.572;2022-12-07T18:31:35;7.00;88.30
28715;DHT22;15886;49.170;14.572;2022-12-07T18:34:09;7.10;87.90
28715;DHT22;15886;49.170;14.572;2022-12-07T18:39:40;7.10;88.10
28715;DHT22;15886;49.170;14.572;2022-12-07T18:43:33;7.10;88.30
28715;DHT22;15886;49.170;14.572;2022-12-07T18:50:24;7.00;88.70
28715;DHT22;15886;49.170;14.572;2022-12-07T18:53:53;6.90;88.90
28715;DHT22;15886;49.170;14.572;2022-12-07T18:57:08;6.90;89.20
28715;DHT22;15886;49.170;14.572;2022-12-07T19:00:26;7.00;89.90
28715;DHT22;15886;49.170;14.572;2022-12-07T19:02:54;7.10;88.00
28715;DHT22;15886;49.170;14.572;2022-12-07T19:05:27;7.10;87.70
28715;DHT22;15886;49.170;14.572;2022-12-07T19:08:01;7.00;87.30
28715;DHT22;15886;49.170;14.572;2022-12-07T19:10:52;7.00;87.60
28715;DHT22;15886;49.170;14.572;2022-12-07T19:14:11;6.90;87.70
28715;DHT22;15886;49.170;14.572;2022-12-07T19:17:04;6.90;87.90
28715;DHT22;15886;49.170;14.572;2022-12-07T19:19:46;6.80;87.90
28715;DHT22;15886;49.170;14.572;2022-12-07T19:22:26;6.70;88.00
28715;DHT22;15886;49.170;14.572;2022-12-07T19:25:08;6.70;88.20
28715;DHT22;15886;49.170;14.572;2022-12-07T19:30:58;6.70;88.20
28715;DHT22;15886;49.170;14.572;2022-12-07T19:34:24;6.70;88.10
28715;DHT22;15886;49.170;14.572;2022-12-07T19:37:37;6.80;87.90
28715;DHT22;15886;49.170;14.572;2022-12-07T19:40:23;6.70;87.80
28715;DHT22;15886;49.170;14.572;2022-12-07T19:44:10;6.70;88.00
28715;DHT22;15886;49.170;14.572;2022-12-07T19:46:55;6.80;88.20
28715;DHT22;15886;49.170;14.572;2022-12-07T19:49:34;6.80;89.30
28715;DHT22;15886;49.170;14.572;2022-12-07T19:52:14;6.80;87.70
28715;DHT22;15886;49.170;14.572;2022-12-07T19:55:10;6.80;87.80
28715;DHT22;15886;49.170;14.572;2022-12-07T19:57:42;6.80;88.10
28715;DHT22;15886;49.170;14.572;2022-12-07T20:00:43;6.90;88.00
28715;DHT22;15886;49.170;14.572;2022-12-07T20:03:41;6.90;88.90
28715;DHT22;15886;49.170;14.572;2022-12-07T20:06:35;6.90;87.90
28715;DHT22;15886;49.170;14.572;2022-12-07T20:09:04;6.90;86.80
28715;DHT22;15886;49.170;14.572;2022-12-07T20:11:32;6.80;87.30
28715;DHT22;15886;49.170;14.572;2022-12-07T20:14:19;6.70;87.90
28715;DHT22;15886;49.170;14.572;2022-12-07T20:16:49;6.60;87.90
28715;DHT22;15886;49.170;14.572;2022-12-07T20:19:18;6.60;88.30
28715;DHT22;15886;49.170;14.572;2022-12-07T20:22:08;6.60;88.30
28715;DHT22;15886;49.170;14.572;2022-12-07T20:25:35;6.60;88.20
28715;DHT22;15886;49.170;14.572;2022-12-07T20:28:06;6.50;88.80
28715;DHT22;15886;49.170;14.572;2022-12-07T20:34:26;6.60;88.90
28715;DHT22;15886;49.170;14.572;2022-12-07T20:43:15;6.60;90.00